Time;durP1;ratioP1;P1;durP2;ratioP2;P2;SDS_P1;SDS_P2;PMS_P1;PMS_P2;Temp;Humidity;BMP_temperature;BMP_pressure;BME280_temperature;BME280_humidity;BME280_pressure;Samples;Min_cycle;Max_cycle;Signal;HPM_P1;HPM_P2
2022/01/14 00:07:50;;;;;;;11.63;7.50;;;;;;;14.74;54.55;103213.56;20997432;28;20099;-67
2022/01/14 00:17:53;;;;;;;7.80;5.63;;;;;;;14.73;54.92;103209.97;20996757;28;20037;-67
2022/01/14 00:38:15;;;;;;;10.30;6.50;;;;;;;14.72;54.73;103208.22;20995321;28;20053;-67
2022/01/14 00:48:19;;;;;;;7.80;5.82;;;;;;;14.03;55.01;103083.94;20910779;28;20053;-67
2022/01/14 01:08:43;;;;;;;7.60;4.95;;;;;;;14.71;54.83;103170.78;20908967;28;20048;-67
2022/01/14 01:18:45;;;;;;;8.00;5.00;;;;;;;14.05;54.85;103057.97;20908648;28;20410;-67
2022/01/14 01:29:02;;;;;;;8.25;5.10;;;;;;;14.63;54.74;103158.50;20908295;28;20556;-67
2022/01/14 01:39:06;;;;;;;8.50;5.63;;;;;;;13.99;54.74;103044.81;20915336;28;20059;-67
2022/01/14 01:49:09;;;;;;;9.82;5.50;;;;;;;14.75;54.45;103172.41;20991698;28;20052;-67
2022/01/14 01:59:11;;;;;;;8.35;5.13;;;;;;;13.99;54.42;103034.09;20990173;28;20048;-67
2022/01/14 02:09:13;;;;;;;8.18;5.28;;;;;;;14.64;54.59;103137.91;20972875;28;20367;-67
2022/01/14 02:19:25;;;;;;;8.27;5.75;;;;;;;14.44;54.46;103099.38;20991861;28;20503;-67
2022/01/14 02:29:27;;;;;;;8.65;5.70;;;;;;;14.76;54.44;103142.81;21006473;28;20098;-67
2022/01/14 02:39:28;;;;;;;8.85;5.32;;;;;;;14.11;54.59;103023.84;21004022;28;20063;-67
2022/01/14 02:49:32;;;;;;;9.38;5.45;;;;;;;13.39;54.38;102902.47;20986358;28;20473;-67
2022/01/14 02:59:37;;;;;;;7.63;5.22;;;;;;;14.05;54.45;103008.91;21003069;28;20052;-67
2022/01/14 03:09:39;;;;;;;8.57;6.00;;;;;;;14.46;54.59;103077.84;20984666;28;20044;-67
2022/01/14 03:19:41;;;;;;;5.82;4.38;;;;;;;13.86;54.57;102960.53;20982772;28;20044;-67
2022/01/14 03:29:44;;;;;;;7.90;5.32;;;;;;;14.10;54.69;102989.94;20999350;28;20048;-67
2022/01/14 03:39:46;;;;;;;7.25;4.72;;;;;;;14.08;54.39;102990.03;20998357;28;20474;-68
2022/01/14 03:49:48;;;;;;;6.32;4.85;;;;;;;14.11;54.23;103018.47;20999638;28;20060;-69
2022/01/14 03:59:50;;;;;;;6.32;4.25;;;;;;;13.40;54.45;102859.63;20980489;28;20036;-67
2022/01/14 04:09:51;;;;;;;6.55;4.60;;;;;;;14.01;54.50;102954.56;20996105;28;20060;-67
2022/01/14 04:19:53;;;;;;;7.07;4.63;;;;;;;14.09;54.59;102969.44;20995269;28;20086;-67
2022/01/14 04:29:55;;;;;;;10.10;5.90;;;;;;;13.43;54.42;102851.50;20994706;28;20075;-67
2022/01/14 04:39:57;;;;;;;8.00;5.05;;;;;;;13.79;54.70;102900.97;20994580;28;20056;-66
2022/01/14 04:50:00;;;;;;;7.53;5.55;;;;;;;14.78;55.07;103046.25;20993587;28;20052;-67
2022/01/14 05:00:05;;;;;;;7.15;5.07;;;;;;;14.24;54.52;102909.03;20993938;28;20105;-67
2022/01/14 05:10:22;;;;;;;6.40;3.90;;;;;;;15.25;54.54;103028.19;20993365;28;20109;-67
2022/01/14 05:20:24;;;;;;;7.05;4.18;;;;;;;15.24;54.20;102957.53;20991637;28;20295;-67
2022/01/14 05:30:26;;;;;;;8.57;5.90;;;;;;;15.94;53.78;103029.66;20991303;28;20197;-67
2022/01/14 05:40:29;;;;;;;7.88;5.45;;;;;;;16.05;53.29;103007.63;20990623;28;20136;-67
2022/01/14 05:50:31;;;;;;;7.13;4.82;;;;;;;15.99;53.30;102987.31;20973942;28;20059;-66
2022/01/14 06:00:33;;;;;;;7.88;4.88;;;;;;;15.68;53.40;102908.16;21002151;28;20457;-66
2022/01/14 06:10:35;;;;;;;7.60;5.35;;;;;;;16.37;53.56;103019.53;21005732;28;20047;-67
2022/01/14 06:20:37;;;;;;;10.38;5.53;;;;;;;15.65;53.39;102886.81;21006058;28;20047;-66
2022/01/14 06:30:39;;;;;;;6.07;4.72;;;;;;;16.25;53.71;103006.69;21004025;28;20040;-67
2022/01/14 06:40:41;;;;;;;6.05;4.30;;;;;;;16.31;53.64;103025.19;21004693;28;20056;-67
2022/01/14 06:50:42;;;;;;;5.05;4.10;;;;;;;15.86;53.76;102949.38;21002526;28;20044;-66
2022/01/14 07:00:44;;;;;;;8.02;4.00;;;;;;;16.40;53.93;103045.41;21002924;28;20406;-68
2022/01/14 07:10:47;;;;;;;5.45;3.90;;;;;;;16.68;54.01;103060.19;20965997;28;20049;-68
2022/01/14 07:20:49;;;;;;;4.80;3.95;;;;;;;16.62;53.99;103088.25;20996944;28;20040;-69
2022/01/14 07:30:50;;;;;;;7.00;4.13;;;;;;;16.60;53.92;103063.25;20974931;28;20040;-68
2022/01/14 07:40:52;;;;;;;5.78;3.85;;;;;;;16.07;53.85;102941.25;20990530;28;20127;-68
2022/01/14 07:50:54;;;;;;;5.43;3.97;;;;;;;16.74;53.67;103046.44;20987611;28;20404;-68
2022/01/14 08:00:56;;;;;;;5.32;3.65;;;;;;;16.80;53.48;103050.66;20990727;28;20044;-68
2022/01/14 08:10:58;;;;;;;6.63;3.80;;;;;;;16.74;53.63;103059.00;20991872;28;20075;-68
2022/01/14 08:20:59;;;;;;;4.88;3.72;;;;;;;16.79;53.31;103081.16;20973989;28;20048;-68
2022/01/14 08:31:02;;;;;;;5.60;3.78;;;;;;;16.77;53.44;103081.25;20989326;28;20048;-68
2022/01/14 08:41:04;;;;;;;4.85;3.67;;;;;;;16.84;53.18;103086.31;20972474;28;20058;-68
2022/01/14 08:51:06;;;;;;;5.38;3.67;;;;;;;16.03;52.97;102939.66;20970462;28;20040;-68
2022/01/14 09:01:08;;;;;;;4.50;2.88;;;;;;;16.18;52.74;102957.75;20986811;28;20048;-68
2022/01/14 09:11:10;;;;;;;6.28;3.75;;;;;;;16.18;52.87;102971.19;20986393;28;20052;-68
2022/01/14 09:21:12;;;;;;;6.75;3.00;;;;;;;16.16;52.74;102970.38;20967479;28;20044;-68
2022/01/14 09:31:14;;;;;;;4.75;2.83;;;;;;;16.88;52.61;103083.41;20983532;28;20102;-68
2022/01/14 09:41:17;;;;;;;4.97;2.95;;;;;;;16.75;52.29;103084.94;20981535;28;20043;-68
2022/01/14 09:51:19;;;;;;;5.07;2.45;;;;;;;16.87;52.57;103080.78;20965815;28;20041;-69
2022/01/14 10:01:23;;;;;;;4.60;2.40;;;;;;;16.33;52.66;102992.88;20984794;28;20512;-69
2022/01/14 10:11:25;;;;;;;5.32;2.60;;;;;;;16.38;52.56;103010.53;20981153;28;20044;-69
2022/01/14 10:21:32;;;;;;;3.75;1.90;;;;;;;16.28;52.57;102986.84;20984332;28;20048;-69
2022/01/14 10:31:36;;;;;;;3.95;1.95;;;;;;;14.93;52.58;102814.09;20961449;28;20044;-69
2022/01/14 10:41:38;;;;;;;3.20;1.80;;;;;;;17.01;52.43;103109.75;20987771;28;20118;-69
2022/01/14 10:51:40;;;;;;;3.40;1.70;;;;;;;17.01;52.15;103115.13;21001019;28;20048;-69
2022/01/14 11:01:41;;;;;;;2.05;1.63;;;;;;;16.84;52.37;103100.66;20992731;28;20044;-69
2022/01/14 11:11:46;;;;;;;6.40;2.22;;;;;;;17.03;52.47;103140.13;20996647;28;20090;-69
2022/01/14 11:32:09;;;;;;;4.53;1.95;;;;;;;16.38;52.27;103032.03;20998351;28;20394;-70
2022/01/14 11:42:13;;;;;;;3.53;1.50;;;;;;;16.35;52.40;103012.50;20978427;28;20048;-69
2022/01/14 11:52:33;;;;;;;3.25;1.40;;;;;;;16.31;52.50;103006.38;20995566;28;20054;-70
2022/01/14 12:02:38;;;;;;;4.00;1.50;;;;;;;16.39;52.81;103011.38;20989601;28;20469;-71
2022/01/14 12:12:40;;;;;;;3.58;1.42;;;;;;;17.05;52.72;103122.09;20970781;28;20048;-70
2022/01/14 12:23:02;;;;;;;3.22;1.63;;;;;;;16.97;52.74;103125.13;20987648;28;20131;-70
2022/01/14 12:33:04;;;;;;;3.15;1.20;;;;;;;16.36;52.83;103009.75;20987592;28;20060;-70
2022/01/14 12:43:12;;;;;;;4.05;1.20;;;;;;;16.72;52.71;103048.34;20986934;28;20056;-70
2022/01/14 12:53:16;;;;;;;3.45;1.42;;;;;;;17.04;52.75;103096.13;20964901;28;20076;-70
2022/01/14 13:03:17;;;;;;;3.47;1.70;;;;;;;17.04;52.66;103099.72;20981055;28;20106;-70
2022/01/14 13:13:24;;;;;;;4.75;1.33;;;;;;;17.10;52.84;103101.19;20983514;28;20070;-70
2022/01/14 13:23:26;;;;;;;2.22;1.30;;;;;;;17.07;52.80;103098.66;20977704;28;20043;-70
2022/01/14 13:33:28;;;;;;;3.58;1.20;;;;;;;17.08;52.76;103101.28;20979471;28;20040;-70
2022/01/14 13:43:32;;;;;;;2.22;1.23;;;;;;;16.32;52.27;102983.06;20979470;28;20052;-70
2022/01/14 13:53:35;;;;;;;2.58;1.42;;;;;;;17.07;52.35;103107.63;20964470;28;20132;-70
2022/01/14 14:03:52;;;;;;;2.47;1.20;;;;;;;16.50;52.41;103024.31;20964081;28;20056;-70
2022/01/14 14:24:30;;;;;;;2.97;1.30;;;;;;;17.08;52.64;103093.22;20994257;28;20163;-70
2022/01/14 14:34:32;;;;;;;4.22;1.10;;;;;;;17.10;52.45;103103.88;20998065;28;20277;-70
2022/01/14 14:44:33;;;;;;;2.83;1.25;;;;;;;17.04;52.55;103083.56;20978169;28;20436;-70
2022/01/14 14:54:35;;;;;;;4.45;1.30;;;;;;;17.08;52.59;103101.28;20990542;28;20083;-70
2022/01/14 15:04:39;;;;;;;2.55;1.33;;;;;;;17.11;52.64;103094.88;20995162;28;20496;-70
2022/01/14 15:14:46;;;;;;;2.60;1.00;;;;;;;16.42;52.59;102986.19;20991600;28;20068;-70
2022/01/14 15:24:48;;;;;;;2.55;1.00;;;;;;;16.42;52.47;102983.50;20974408;28;20482;-70
2022/01/14 15:34:50;;;;;;;3.75;1.77;;;;;;;16.44;52.62;102973.53;20987980;28;20044;-70
2022/01/14 15:44:52;;;;;;;2.67;1.02;;;;;;;17.13;52.56;103082.19;20988610;28;20056;-70
2022/01/14 15:54:53;;;;;;;3.00;1.10;;;;;;;16.41;52.82;102961.09;20990719;28;20044;-70
2022/01/14 16:04:55;;;;;;;2.15;0.80;;;;;;;16.40;52.83;102947.75;20990669;28;20114;-70
2022/01/14 16:14:57;;;;;;;2.10;1.23;;;;;;;16.88;52.84;103032.31;20976112;28;20135;-70
2022/01/14 16:24:59;;;;;;;2.33;1.08;;;;;;;17.07;52.97;103052.91;20993683;28;20102;-70
2022/01/14 16:35:01;;;;;;;3.13;1.55;;;;;;;17.08;52.86;103069.00;20993180;28;20044;-70
2022/01/14 16:45:05;;;;;;;2.10;0.88;;;;;;;16.90;52.81;103016.06;20975115;28;20110;-70
2022/01/14 16:55:08;;;;;;;3.03;1.10;;;;;;;17.06;52.75;103037.72;20989522;28;20037;-70
2022/01/14 17:05:10;;;;;;;1.98;1.10;;;;;;;17.11;53.06;103054.50;20971827;28;20050;-70
2022/01/14 17:15:12;;;;;;;1.58;0.90;;;;;;;16.93;52.69;103016.78;20973570;28;20054;-70
2022/01/14 17:25:14;;;;;;;2.55;1.35;;;;;;;16.48;52.77;102951.78;20989915;28;20097;-70
2022/01/14 17:35:16;;;;;;;3.13;1.10;;;;;;;16.95;52.94;103040.91;20988976;28;20076;-69
2022/01/14 17:45:19;;;;;;;3.47;1.20;;;;;;;17.00;52.93;103030.81;20973568;28;20370;-69
2022/01/14 17:55:21;;;;;;;3.22;1.35;;;;;;;16.40;53.23;102926.25;20982839;28;20052;-69
2022/01/14 18:05:22;;;;;;;3.67;1.23;;;;;;;16.82;53.14;103038.00;21006666;28;20052;-69
2022/01/14 18:15:25;;;;;;;2.67;1.35;;;;;;;16.66;53.32;102995.72;21004125;28;20049;-69
2022/01/14 18:25:27;;;;;;;3.30;1.25;;;;;;;16.72;53.28;103007.09;20970532;28;20122;-69
2022/01/14 18:35:29;;;;;;;2.83;1.38;;;;;;;16.83;53.50;103042.44;21002834;28;20052;-69
2022/01/14 18:45:32;;;;;;;4.25;1.42;;;;;;;16.13;53.34;102932.91;20998860;28;20143;-69
2022/01/14 18:55:33;;;;;;;2.97;1.45;;;;;;;16.56;53.45;103004.31;20999553;28;20097;-69
2022/01/14 19:05:35;;;;;;;1.95;1.13;;;;;;;16.23;53.50;102946.75;20999937;28;20048;-69
2022/01/14 19:15:37;;;;;;;3.40;1.42;;;;;;;16.80;53.41;103035.38;20999283;28;20131;-69
2022/01/14 19:25:39;;;;;;;1.67;0.98;;;;;;;16.70;53.34;103030.50;20999768;28;20452;-69
2022/01/14 19:35:41;;;;;;;1.98;1.42;;;;;;;15.88;52.98;102898.28;21000666;28;20066;-69
2022/01/14 19:45:42;;;;;;;3.45;1.40;;;;;;;16.60;53.39;103022.06;20999891;28;20140;-69
2022/01/14 19:55:44;;;;;;;2.80;1.55;;;;;;;16.50;53.75;103029.69;20999153;28;20135;-69
2022/01/14 20:05:46;;;;;;;2.25;1.30;;;;;;;16.43;54.00;103041.69;20979413;28;20049;-69
2022/01/14 20:15:48;;;;;;;1.55;1.13;;;;;;;16.34;53.79;103016.97;20979514;28;20048;-69
2022/01/14 20:25:50;;;;;;;2.55;1.83;;;;;;;16.02;54.11;102987.16;20996662;28;20060;-69
2022/01/14 20:35:52;;;;;;;2.10;1.80;;;;;;;15.46;54.40;102894.84;20994777;28;20053;-69
2022/01/14 20:45:54;;;;;;;2.35;1.90;;;;;;;15.46;54.44;102911.81;20978025;28;20044;-69
2022/01/14 20:55:56;;;;;;;3.53;2.08;;;;;;;15.39;54.18;102910.38;20994510;28;20048;-69
2022/01/14 21:05:57;;;;;;;2.00;1.70;;;;;;;15.22;54.18;102884.28;20993816;28;20109;-69
2022/01/14 21:15:59;;;;;;;3.03;2.00;;;;;;;14.83;54.80;102888.72;20994093;28;20110;-70
2022/01/14 21:26:01;;;;;;;2.80;1.92;;;;;;;15.60;54.50;102969.41;20992223;28;20451;-69
2022/01/14 21:36:03;;;;;;;2.63;1.85;;;;;;;15.73;55.09;103004.63;20991232;28;20040;-69
2022/01/14 21:46:05;;;;;;;3.22;2.05;;;;;;;15.59;54.83;102989.13;20991119;28;20414;-69
2022/01/14 21:56:07;;;;;;;2.20;1.55;;;;;;;14.78;55.14;102858.53;20992026;28;20048;-69
2022/01/14 22:06:09;;;;;;;2.75;1.52;;;;;;;14.38;55.19;102847.72;20990141;28;20044;-69
2022/01/14 22:16:11;;;;;;;3.65;1.90;;;;;;;15.43;55.29;102979.06;20990650;28;20049;-69
2022/01/14 22:26:12;;;;;;;1.92;1.58;;;;;;;14.07;55.18;102761.47;20971848;28;20459;-69
2022/01/14 22:36:14;;;;;;;2.38;1.85;;;;;;;15.37;55.45;102966.81;20973583;28;20053;-69
2022/01/14 22:46:16;;;;;;;1.85;1.55;;;;;;;15.27;55.49;102978.91;20987447;28;20536;-69
2022/01/14 22:56:18;;;;;;;2.42;1.95;;;;;;;15.27;55.71;102957.44;21004048;28;20139;-69
2022/01/14 23:06:20;;;;;;;2.28;1.50;;;;;;;14.77;55.36;102879.13;21003260;28;20052;-69
2022/01/14 23:16:22;;;;;;;2.92;1.83;;;;;;;14.53;55.82;102858.72;21002212;28;20433;-69
2022/01/14 23:26:24;;;;;;;2.13;1.60;;;;;;;14.57;55.99;102855.81;21001810;28;20048;-69
2022/01/14 23:36:26;;;;;;;2.67;1.70;;;;;;;15.04;55.74;102937.00;20983053;28;20053;-69
2022/01/14 23:56:30;;;;;;;2.13;1.52;;;;;;;15.00;56.28;102965.75;20979503;28;20066;-69
